createdAt,value
2019-04-11T00:00:52.061Z,4.70
2019-04-11T00:03:21.740Z,4.70
2019-04-11T00:05:51.287Z,4.80
2019-04-11T00:08:21.653Z,4.70
2019-04-11T00:10:53.541Z,4.70
2019-04-11T00:13:26.747Z,4.80
2019-04-11T00:15:54.990Z,4.80
2019-04-11T00:18:26.969Z,4.90
2019-04-11T00:20:58.198Z,4.90
2019-04-11T00:23:27.647Z,4.90
2019-04-11T00:25:59.975Z,4.90
2019-04-11T00:28:31.978Z,4.80
2019-04-11T00:31:01.421Z,4.80
2019-04-11T00:33:31.958Z,4.90
2019-04-11T00:36:04.111Z,4.80
2019-04-11T00:38:34.507Z,4.70
2019-04-11T00:41:05.862Z,4.70
2019-04-11T00:43:40.426Z,4.80
2019-04-11T00:46:07.871Z,4.70
2019-04-11T00:48:37.731Z,4.70
2019-04-11T00:51:11.799Z,4.70
2019-04-11T00:53:42.334Z,4.70
2019-04-11T00:56:12.423Z,4.70
2019-04-11T00:58:41.932Z,4.80
2019-04-11T01:01:13.642Z,4.80
2019-04-11T01:03:43.283Z,4.80
2019-04-11T01:06:14.189Z,4.70
2019-04-11T01:08:44.015Z,4.70
2019-04-11T01:11:14.002Z,4.70
2019-04-11T01:13:49.159Z,4.60
2019-04-11T01:16:24.858Z,4.40
2019-04-11T01:18:55.580Z,4.50
2019-04-11T01:21:24.980Z,4.50
2019-04-11T01:23:55.589Z,4.50
2019-04-11T01:26:25.350Z,4.40
2019-04-11T01:28:55.999Z,4.30
2019-04-11T01:31:30.610Z,4.30
2019-04-11T01:34:00.213Z,4.20
2019-04-11T01:36:37.391Z,4.20
2019-04-11T01:39:13.024Z,4.20
2019-04-11T01:41:45.214Z,4.20
2019-04-11T01:44:14.776Z,4.30
2019-04-11T01:46:46.489Z,4.30
2019-04-11T01:49:20.606Z,4.30
2019-04-11T01:51:50.185Z,4.40
2019-04-11T01:54:21.761Z,4.40
2019-04-11T01:56:52.191Z,4.40
2019-04-11T01:59:21.834Z,4.30
2019-04-11T02:02:07.479Z,4.30
2019-04-11T02:04:56.769Z,4.20
2019-04-11T02:07:27.171Z,4.20
2019-04-11T02:09:56.797Z,4.30
2019-04-11T02:12:26.895Z,4.30
2019-04-11T02:14:57.640Z,4.20
2019-04-11T02:17:27.072Z,4.10
2019-04-11T02:19:56.611Z,4.10
2019-04-11T02:22:42.426Z,4.10
2019-04-11T02:25:16.477Z,4.00
2019-04-11T02:27:46.299Z,4.10
2019-04-11T02:30:17.928Z,4.10
2019-04-11T02:32:47.967Z,4.00
2019-04-11T02:35:19.856Z,4.00
2019-04-11T02:37:51.557Z,4.10
2019-04-11T02:40:22.306Z,4.00
2019-04-11T02:42:53.181Z,4.00
2019-04-11T02:45:36.994Z,4.00
2019-04-11T02:47:56.329Z,3.90
2019-04-11T02:50:34.386Z,4.00
2019-04-11T02:53:05.059Z,4.00
2019-04-11T02:55:35.797Z,4.00
2019-04-11T02:58:07.794Z,4.10
2019-04-11T03:00:40.216Z,4.00
2019-04-11T03:03:10.353Z,4.00
2019-04-11T03:05:44.570Z,3.90
2019-04-11T03:08:18.897Z,4.00
2019-04-11T03:10:46.652Z,4.10
2019-04-11T03:13:16.790Z,4.10
2019-04-11T03:15:59.490Z,4.10
2019-04-11T03:18:35.674Z,4.00
2019-04-11T03:20:56.064Z,4.00
2019-04-11T03:23:21.255Z,4.00
2019-04-11T03:25:52.443Z,4.00
2019-04-11T03:28:25.678Z,3.90
2019-04-11T03:31:13.163Z,4.00
2019-04-11T03:34:18.294Z,3.70
2019-04-11T03:38:46.678Z,3.80
2019-04-11T03:41:18.911Z,3.80
2019-04-11T03:43:38.017Z,3.60
2019-04-11T03:46:19.527Z,3.50
2019-04-11T03:48:42.196Z,3.60
2019-04-11T03:51:04.598Z,3.60
2019-04-11T03:53:37.686Z,3.70
2019-04-11T03:56:09.639Z,3.70
2019-04-11T03:58:39.755Z,3.70
2019-04-11T04:01:11.526Z,3.80
2019-04-11T04:03:42.398Z,3.80
2019-04-11T04:06:12.937Z,3.90
2019-04-11T04:08:42.478Z,3.90
2019-04-11T04:11:14.870Z,3.80
2019-04-11T04:13:48.229Z,3.60
2019-04-11T04:16:40.761Z,3.70
2019-04-11T04:19:25.122Z,3.60
2019-04-11T04:22:04.938Z,3.60
2019-04-11T04:24:40.095Z,3.70
2019-04-11T04:27:10.418Z,3.80
2019-04-11T04:29:41.344Z,3.80
2019-04-11T04:32:12.057Z,3.80
2019-04-11T04:35:01.144Z,3.80
2019-04-11T04:37:34.703Z,3.90
2019-04-11T04:40:23.316Z,3.90
2019-04-11T04:42:46.604Z,3.90
2019-04-11T04:45:14.010Z,3.90
2019-04-11T04:47:48.941Z,3.80
2019-04-11T04:50:18.066Z,3.90
2019-04-11T04:52:48.966Z,3.60
2019-04-11T04:55:23.664Z,3.20
2019-04-11T04:57:55.249Z,3.10
2019-04-11T05:00:25.440Z,3.30
2019-04-11T05:02:56.878Z,3.40
2019-04-11T05:05:29.233Z,3.50
2019-04-11T05:08:35.302Z,3.60
2019-04-11T05:11:04.943Z,3.60
2019-04-11T05:13:34.575Z,3.60
2019-04-11T05:16:16.431Z,3.60
2019-04-11T05:18:36.459Z,3.70
2019-04-11T05:21:06.100Z,3.50
2019-04-11T05:23:35.535Z,3.20
2019-04-11T05:26:06.740Z,3.10
2019-04-11T05:28:37.386Z,3.10
2019-04-11T05:31:08.009Z,3.20
2019-04-11T05:33:37.479Z,3.30
2019-04-11T05:36:07.910Z,3.40
2019-04-11T05:38:37.963Z,3.50
2019-04-11T05:41:12.101Z,3.60
2019-04-11T05:43:40.123Z,3.60
2019-04-11T05:46:24.002Z,3.70
2019-04-11T05:48:51.065Z,3.90
2019-04-11T05:51:23.365Z,4.00
2019-04-11T05:53:54.449Z,4.10
2019-04-11T05:56:28.005Z,4.30
2019-04-11T05:58:59.884Z,4.40
2019-04-11T06:01:39.807Z,4.40
2019-04-11T06:04:15.379Z,4.40
2019-04-11T06:06:57.237Z,4.50
2019-04-11T06:09:32.970Z,4.60
2019-04-11T06:12:13.682Z,4.50
2019-04-11T06:14:53.539Z,4.20
2019-04-11T06:17:23.915Z,4.50
2019-04-11T06:20:12.495Z,4.60
2019-04-11T06:22:43.801Z,4.70
2019-04-11T06:25:28.160Z,4.90
2019-04-11T06:27:59.963Z,5.10
2019-04-11T06:30:42.658Z,5.20
2019-04-11T06:33:16.382Z,5.30
2019-04-11T06:35:55.051Z,5.60
2019-04-11T06:38:44.993Z,5.70
2019-04-11T06:41:34.718Z,5.90
2019-04-11T06:44:09.230Z,5.90
2019-04-11T06:46:50.483Z,6.00
2019-04-11T06:49:22.466Z,6.10
2019-04-11T06:51:56.755Z,6.20
2019-04-11T06:54:37.155Z,6.20
2019-04-11T06:57:20.102Z,6.40
2019-04-11T06:59:51.103Z,6.50
2019-04-11T07:02:24.070Z,6.50
2019-04-11T07:04:56.029Z,6.60
2019-04-11T07:07:29.468Z,6.60
2019-04-11T07:10:02.254Z,6.70
2019-04-11T07:12:35.687Z,6.80
2019-04-11T07:15:15.428Z,6.90
2019-04-11T07:18:07.087Z,7.10
2019-04-11T07:20:52.314Z,7.20
2019-04-11T07:23:40.550Z,7.20
2019-04-11T07:26:16.601Z,7.30
2019-04-11T07:28:47.960Z,7.40
2019-04-11T07:31:35.532Z,7.40
2019-04-11T07:34:24.125Z,7.50
2019-04-11T07:36:57.986Z,7.50
2019-04-11T07:39:31.738Z,7.50
2019-04-11T07:42:21.206Z,7.60
2019-04-11T07:45:01.355Z,7.80
2019-04-11T07:47:32.804Z,7.50
2019-04-11T07:50:06.054Z,7.50
2019-04-11T07:52:38.007Z,7.60
2019-04-11T07:55:08.819Z,7.70
2019-04-11T07:57:48.991Z,8.00
2019-04-11T08:00:35.901Z,8.00
2019-04-11T08:03:12.325Z,7.70
2019-04-11T08:05:52.259Z,7.60
2019-04-11T08:08:23.352Z,7.90
2019-04-11T08:10:58.110Z,8.00
2019-04-11T08:13:38.811Z,8.10
2019-04-11T08:16:28.860Z,8.20
2019-04-11T08:19:15.958Z,8.10
2019-04-11T08:22:03.139Z,8.20
2019-04-11T08:24:44.895Z,8.20
2019-04-11T08:27:27.846Z,7.70
2019-04-11T08:30:00.352Z,7.60
2019-04-11T08:32:31.714Z,7.70
2019-04-11T08:35:19.854Z,7.90
2019-04-11T08:38:07.897Z,8.20
2019-04-11T08:40:53.470Z,8.40
2019-04-11T08:43:33.648Z,8.50
2019-04-11T08:46:05.114Z,8.50
2019-04-11T08:48:37.168Z,8.50
2019-04-11T08:51:09.702Z,8.60
2019-04-11T08:53:44.813Z,8.60
2019-04-11T08:56:16.294Z,8.80
2019-04-11T08:59:13.483Z,8.80
2019-04-11T09:01:42.939Z,8.90
2019-04-11T09:04:30.149Z,8.50
2019-04-11T09:07:01.075Z,8.40
2019-04-11T09:09:48.350Z,8.30
2019-04-11T09:12:18.439Z,8.20
2019-04-11T09:14:52.663Z,8.10
2019-04-11T09:17:23.764Z,8.00
2019-04-11T09:19:55.213Z,7.80
2019-04-11T09:22:33.232Z,7.60
2019-04-11T09:25:10.899Z,7.30
2019-04-11T09:27:54.443Z,7.50
2019-04-11T09:30:26.630Z,7.70
2019-04-11T09:32:58.268Z,7.80
2019-04-11T09:35:45.621Z,7.90
2019-04-11T09:38:16.697Z,8.10
2019-04-11T09:40:54.825Z,8.00
2019-04-11T09:43:35.828Z,8.10
2019-04-11T09:46:18.671Z,8.20
2019-04-11T09:49:04.804Z,8.30
2019-04-11T09:51:36.136Z,8.30
2019-04-11T09:54:09.179Z,8.40
2019-04-11T09:56:41.208Z,8.50
2019-04-11T09:59:12.536Z,8.50
2019-04-11T10:02:00.321Z,8.50
2019-04-11T10:04:31.958Z,8.60
2019-04-11T10:07:17.603Z,8.70
2019-04-11T10:10:04.585Z,8.70
2019-04-11T10:12:52.236Z,8.60
2019-04-11T10:15:23.372Z,8.50
2019-04-11T10:18:19.992Z,8.70
2019-04-11T10:20:42.578Z,8.90
2019-04-11T10:23:18.808Z,9.20
2019-04-11T10:25:51.654Z,9.50
2019-04-11T10:28:30.328Z,9.70
2019-04-11T10:31:08.680Z,10.00
2019-04-11T10:33:39.860Z,10.20
2019-04-11T10:36:16.954Z,10.50
2019-04-11T10:38:47.504Z,10.20
2019-04-11T10:41:36.530Z,10.20
2019-04-11T10:44:07.579Z,10.30
2019-04-11T10:46:44.294Z,10.50
2019-04-11T10:49:24.234Z,10.70
2019-04-11T10:52:14.059Z,9.80
2019-04-11T10:54:47.079Z,9.70
2019-04-11T10:57:24.378Z,9.80
2019-04-11T10:59:54.570Z,9.70
2019-04-11T11:02:35.637Z,9.30
2019-04-11T11:05:05.887Z,8.90
2019-04-11T11:07:36.721Z,9.00
2019-04-11T11:10:12.152Z,9.00
2019-04-11T11:12:59.420Z,8.60
2019-04-11T11:15:31.543Z,8.80
2019-04-11T11:18:38.120Z,9.10
2019-04-11T11:20:54.038Z,9.20
2019-04-11T11:23:20.359Z,9.40
2019-04-11T11:26:07.527Z,9.50
2019-04-11T11:28:54.745Z,9.80
2019-04-11T11:31:34.896Z,9.30
2019-04-11T11:34:07.682Z,9.40
2019-04-11T11:36:54.961Z,9.70
2019-04-11T11:39:30.999Z,9.80
2019-04-11T11:42:22.570Z,10.10
2019-04-11T11:45:17.667Z,10.40
2019-04-11T11:48:08.947Z,10.50
2019-04-11T11:50:37.826Z,9.60
2019-04-11T11:53:25.869Z,9.70
2019-04-11T11:55:59.813Z,9.90
2019-04-11T11:58:53.014Z,10.10
2019-04-11T12:01:19.768Z,10.00
2019-04-11T12:03:57.522Z,10.20
2019-04-11T12:06:25.766Z,10.30
2019-04-11T12:09:00.341Z,10.40
2019-04-11T12:11:32.397Z,10.50
2019-04-11T12:14:22.215Z,10.60
2019-04-11T12:17:05.083Z,10.30
2019-04-11T12:19:44.716Z,9.70
2019-04-11T12:22:06.199Z,9.10
2019-04-11T12:24:46.214Z,8.70
2019-04-11T12:27:18.440Z,8.40
2019-04-11T12:30:07.404Z,8.50
2019-04-11T12:32:48.634Z,8.80
2019-04-11T12:35:32.864Z,8.80
2019-04-11T12:38:26.284Z,8.60
2019-04-11T12:41:13.109Z,8.80
2019-04-11T12:44:02.047Z,9.20
2019-04-11T12:46:49.277Z,9.60
2019-04-11T12:49:32.383Z,9.70
2019-04-11T12:52:23.243Z,9.70
2019-04-11T12:54:54.325Z,9.80
2019-04-11T12:57:25.412Z,10.00
2019-04-11T13:00:02.463Z,10.00
2019-04-11T13:02:46.216Z,10.00
2019-04-11T13:05:19.481Z,9.80
2019-04-11T13:07:50.621Z,9.80
2019-04-11T13:10:20.153Z,9.80
2019-04-11T13:12:54.059Z,9.60
2019-04-11T13:15:26.283Z,9.30
2019-04-11T13:18:02.931Z,9.20
2019-04-11T13:20:43.743Z,8.70
2019-04-11T13:23:23.737Z,8.50
2019-04-11T13:26:12.083Z,8.90
2019-04-11T13:28:43.171Z,9.30
2019-04-11T13:31:23.235Z,9.70
2019-04-11T13:33:54.430Z,9.40
2019-04-11T13:36:40.683Z,9.60
2019-04-11T13:39:10.303Z,9.70
2019-04-11T13:41:50.343Z,9.50
2019-04-11T13:44:19.893Z,9.60
2019-04-11T13:47:06.855Z,9.30
2019-04-11T13:49:38.311Z,8.80
2019-04-11T13:52:25.504Z,8.90
2019-04-11T13:55:00.853Z,9.10
2019-04-11T13:57:32.183Z,9.40
2019-04-11T14:00:19.467Z,9.50
2019-04-11T14:03:02.963Z,9.50
2019-04-11T14:05:45.191Z,9.60
2019-04-11T14:08:22.204Z,9.80
2019-04-11T14:10:55.971Z,9.50
2019-04-11T14:13:27.088Z,8.90
2019-04-11T14:16:00.683Z,9.00
2019-04-11T14:18:31.791Z,9.10
2019-04-11T14:21:05.827Z,9.30
2019-04-11T14:23:53.193Z,9.50
2019-04-11T14:26:35.969Z,9.40
2019-04-11T14:29:15.899Z,9.00
2019-04-11T14:31:50.819Z,8.70
2019-04-11T14:34:29.399Z,8.60
2019-04-11T14:37:16.517Z,8.70
2019-04-11T14:39:50.266Z,8.80
2019-04-11T14:42:36.261Z,9.10
2019-04-11T14:45:08.377Z,9.00
2019-04-11T14:47:40.099Z,8.70
2019-04-11T14:50:11.860Z,8.50
2019-04-11T14:52:59.165Z,8.70
2019-04-11T14:55:28.695Z,9.00
2019-04-11T14:57:59.864Z,9.40
2019-04-11T15:00:33.607Z,9.60
2019-04-11T15:03:04.695Z,9.90
2019-04-11T15:05:35.832Z,9.90
2019-04-11T15:08:05.652Z,9.90
2019-04-11T15:10:36.928Z,9.90
2019-04-11T15:13:08.185Z,9.70
2019-04-11T15:15:49.246Z,9.70
2019-04-11T15:18:19.319Z,9.60
2019-04-11T15:20:55.168Z,9.60
2019-04-11T15:23:28.616Z,9.50
2019-04-11T15:26:12.361Z,9.40
2019-04-11T15:28:43.912Z,9.40
2019-04-11T15:31:38.542Z,9.20
2019-04-11T15:34:00.121Z,9.20
2019-04-11T15:36:30.548Z,9.00
2019-04-11T15:39:13.629Z,8.70
2019-04-11T15:41:44.837Z,8.30
2019-04-11T15:44:31.820Z,8.40
2019-04-11T15:47:02.903Z,8.50
2019-04-11T15:49:49.976Z,8.60
2019-04-11T15:52:19.505Z,8.50
2019-04-11T15:55:07.796Z,8.70
2019-04-11T15:57:42.642Z,8.80
2019-04-11T16:00:16.868Z,8.90
2019-04-11T16:03:00.935Z,8.90
2019-04-11T16:05:35.009Z,8.90
2019-04-11T16:08:21.204Z,8.70
2019-04-11T16:10:52.371Z,8.40
2019-04-11T16:13:39.405Z,8.30
2019-04-11T16:16:12.002Z,8.60
2019-04-11T16:18:47.114Z,8.80
2019-04-11T16:21:21.193Z,8.90
2019-04-11T16:23:51.559Z,9.10
2019-04-11T16:26:26.954Z,9.30
2019-04-11T16:29:09.646Z,9.50
2019-04-11T16:31:43.474Z,9.80
2019-04-11T16:34:20.815Z,9.80
2019-04-11T16:36:51.525Z,10.20
2019-04-11T16:39:32.965Z,10.60
2019-04-11T16:42:04.360Z,10.80
2019-04-11T16:44:46.249Z,11.00
2019-04-11T16:47:19.688Z,10.70
2019-04-11T16:49:49.154Z,10.20
2019-04-11T16:52:18.594Z,9.70
2019-04-11T16:54:48.049Z,9.50
2019-04-11T16:57:17.532Z,9.20
2019-04-11T16:59:49.585Z,9.00
2019-04-11T17:02:21.819Z,8.80
2019-04-11T17:04:55.657Z,8.20
2019-04-11T17:07:30.340Z,8.20
2019-04-11T17:10:01.664Z,8.20
2019-04-11T17:12:31.994Z,8.10
2019-04-11T17:15:01.799Z,7.90
2019-04-11T17:17:32.380Z,7.90
2019-04-11T17:20:05.765Z,7.90
2019-04-11T17:22:34.020Z,7.80
2019-04-11T17:25:03.835Z,7.80
2019-04-11T17:27:33.993Z,7.80
2019-04-11T17:30:05.839Z,7.80
2019-04-11T17:32:37.555Z,7.90
2019-04-11T17:35:07.164Z,7.90
2019-04-11T17:37:36.694Z,7.70
2019-04-11T17:40:07.594Z,7.60
2019-04-11T17:42:37.327Z,7.60
2019-04-11T17:45:07.283Z,7.60
2019-04-11T17:47:37.828Z,7.40
2019-04-11T17:50:07.602Z,7.30
2019-04-11T17:52:37.138Z,7.40
2019-04-11T17:55:06.950Z,7.30
2019-04-11T17:57:36.403Z,7.30
2019-04-11T18:00:11.024Z,7.30
2019-04-11T18:02:41.576Z,7.30
2019-04-11T18:05:17.201Z,7.30
2019-04-11T18:07:50.043Z,7.30
2019-04-11T18:10:27.880Z,7.30
2019-04-11T18:13:00.346Z,7.20
2019-04-11T18:15:28.859Z,7.20
2019-04-11T18:18:05.427Z,7.30
2019-04-11T18:20:55.630Z,7.20
2019-04-11T18:23:43.982Z,7.20
2019-04-11T18:26:13.408Z,7.30
2019-04-11T18:28:42.920Z,7.20
2019-04-11T18:31:12.410Z,7.20
2019-04-11T18:33:41.946Z,7.10
2019-04-11T18:36:11.512Z,7.20
2019-04-11T18:38:41.148Z,7.20
2019-04-11T18:41:10.906Z,7.20
2019-04-11T18:43:41.954Z,7.10
2019-04-11T18:46:11.532Z,7.10
2019-04-11T18:48:42.143Z,7.10
2019-04-11T18:51:11.717Z,7.10
2019-04-11T18:53:41.199Z,7.10
2019-04-11T18:56:10.643Z,7.10
2019-04-11T18:58:44.228Z,7.20
2019-04-11T19:01:18.667Z,7.10
2019-04-11T19:04:17.953Z,7.10
2019-04-11T19:06:52.446Z,7.20
2019-04-11T19:09:22.413Z,7.10
2019-04-11T19:11:51.873Z,7.10
2019-04-11T19:14:24.576Z,7.00
2019-04-11T19:16:52.940Z,7.00
2019-04-11T19:19:22.447Z,7.00
2019-04-11T19:21:51.946Z,7.00
2019-04-11T19:24:22.409Z,7.00
2019-04-11T19:26:51.847Z,6.90
2019-04-11T19:29:24.750Z,6.90
2019-04-11T19:31:53.667Z,6.90
2019-04-11T19:34:23.091Z,6.80
2019-04-11T19:36:52.527Z,6.70
2019-04-11T19:39:23.509Z,6.70
2019-04-11T19:41:52.945Z,6.70
2019-04-11T19:44:22.541Z,6.70
2019-04-11T19:46:52.112Z,6.70
2019-04-11T19:49:21.596Z,6.70
2019-04-11T19:51:51.071Z,6.70
2019-04-11T19:54:20.603Z,6.70
2019-04-11T19:56:57.713Z,6.70
2019-04-11T19:59:27.841Z,6.60
2019-04-11T20:01:57.393Z,6.60
2019-04-11T20:04:30.380Z,6.50
2019-04-11T20:07:00.030Z,6.50
2019-04-11T20:09:30.608Z,6.50
2019-04-11T20:12:00.882Z,6.50
2019-04-11T20:14:33.867Z,6.40
2019-04-11T20:17:01.575Z,6.50
2019-04-11T20:19:31.150Z,6.50
2019-04-11T20:22:00.628Z,6.40
2019-04-11T20:24:30.117Z,6.40
2019-04-11T20:26:59.562Z,6.30
2019-04-11T20:29:32.599Z,6.10
2019-04-11T20:32:02.115Z,6.00
2019-04-11T20:34:31.597Z,5.90
2019-04-11T20:37:01.082Z,5.80
2019-04-11T20:39:30.580Z,5.80
2019-04-11T20:42:00.141Z,5.90
2019-04-11T20:44:29.653Z,6.00
2019-04-11T20:47:00.394Z,6.00
2019-04-11T20:49:30.300Z,6.00
2019-04-11T20:51:59.742Z,5.90
2019-04-11T20:54:29.343Z,5.90
2019-04-11T20:56:59.895Z,5.80
2019-04-11T20:59:34.941Z,5.70
2019-04-11T21:02:00.662Z,5.60
2019-04-11T21:04:31.347Z,5.70
2019-04-11T21:07:02.041Z,5.70
2019-04-11T21:09:33.352Z,5.60
2019-04-11T21:12:05.000Z,5.60
2019-04-11T21:14:34.283Z,5.60
2019-04-11T21:17:03.808Z,5.70
2019-04-11T21:19:33.309Z,5.70
2019-04-11T21:22:02.917Z,5.70
2019-04-11T21:24:32.432Z,5.70
2019-04-11T21:27:01.984Z,5.50
2019-04-11T21:29:31.506Z,5.50
2019-04-11T21:32:01.626Z,5.60
2019-04-11T21:34:32.346Z,5.60
2019-04-11T21:37:02.741Z,5.60
2019-04-11T21:39:32.291Z,5.40
2019-04-11T21:42:05.815Z,5.30
2019-04-11T21:44:36.018Z,5.30
2019-04-11T21:47:04.059Z,5.40
2019-04-11T21:49:36.611Z,5.40
2019-04-11T21:52:04.694Z,5.30
2019-04-11T21:54:34.291Z,5.30
2019-04-11T21:57:03.853Z,5.20
2019-04-11T21:59:33.362Z,5.20
2019-04-11T22:02:03.259Z,5.30
2019-04-11T22:04:32.960Z,5.30
2019-04-11T22:07:02.435Z,5.40
2019-04-11T22:09:33.036Z,5.30
2019-04-11T22:12:03.210Z,5.30
2019-04-11T22:14:32.845Z,5.30
2019-04-11T22:17:02.309Z,5.20
2019-04-11T22:19:31.808Z,5.30
2019-04-11T22:22:01.274Z,5.20
2019-04-11T22:24:30.827Z,5.20
2019-04-11T22:27:00.469Z,5.10
2019-04-11T22:29:30.065Z,5.20
2019-04-11T22:32:00.443Z,5.10
2019-04-11T22:34:37.066Z,5.20
2019-04-11T22:37:06.696Z,5.10
2019-04-11T22:39:36.228Z,5.10
2019-04-11T22:42:05.809Z,5.10
2019-04-11T22:44:35.585Z,5.00
2019-04-11T22:47:08.139Z,5.00
2019-04-11T22:49:39.407Z,5.00
2019-04-11T22:52:11.415Z,5.00
2019-04-11T22:54:41.210Z,4.90
2019-04-11T22:57:12.144Z,4.90
2019-04-11T22:59:44.937Z,5.00
2019-04-11T23:02:21.027Z,5.00
2019-04-11T23:04:51.482Z,4.90
2019-04-11T23:07:21.073Z,4.90
2019-04-11T23:09:50.616Z,5.00
2019-04-11T23:12:21.082Z,4.90
2019-04-11T23:14:51.567Z,4.90
2019-04-11T23:17:21.034Z,4.90
2019-04-11T23:19:50.539Z,4.80
2019-04-11T23:22:19.979Z,4.80
2019-04-11T23:24:49.428Z,4.80
2019-04-11T23:27:18.951Z,4.90
2019-04-11T23:29:48.455Z,4.80
2019-04-11T23:32:18.792Z,4.70
2019-04-11T23:34:49.925Z,4.80
2019-04-11T23:37:21.746Z,4.80
2019-04-11T23:39:51.727Z,4.80
2019-04-11T23:42:21.197Z,4.80
2019-04-11T23:44:51.233Z,4.70
2019-04-11T23:47:23.170Z,4.80
2019-04-11T23:49:55.043Z,4.70
2019-04-11T23:52:26.450Z,4.70
2019-04-11T23:54:53.944Z,4.70
2019-04-11T23:57:23.410Z,4.70
2019-04-11T23:59:52.863Z,4.80
